sensor_id;sensor_type;location;lat;lon;timestamp;P1;durP1;ratioP1;P2;durP2;ratioP2
45043;SDS011;30784;48.490;9.688;2023-02-01T00:02:09;5.55;;;1.80;;
45043;SDS011;30784;48.490;9.688;2023-02-01T00:04:34;7.55;;;2.90;;
45043;SDS011;30784;48.490;9.688;2023-02-01T00:07:00;5.07;;;1.60;;
45043;SDS011;30784;48.490;9.688;2023-02-01T00:09:26;5.45;;;1.48;;
45043;SDS011;30784;48.490;9.688;2023-02-01T00:11:51;4.38;;;1.40;;
45043;SDS011;30784;48.490;9.688;2023-02-01T00:14:17;4.50;;;1.38;;
45043;SDS011;30784;48.490;9.688;2023-02-01T00:16:43;4.65;;;1.30;;
45043;SDS011;30784;48.490;9.688;2023-02-01T00:19:13;4.55;;;1.45;;
45043;SDS011;30784;48.490;9.688;2023-02-01T00:21:39;3.53;;;1.13;;
45043;SDS011;30784;48.490;9.688;2023-02-01T00:24:05;3.53;;;1.20;;
45043;SDS011;30784;48.490;9.688;2023-02-01T00:29:02;3.92;;;1.13;;
45043;SDS011;30784;48.490;9.688;2023-02-01T00:31:29;5.00;;;1.20;;
45043;SDS011;30784;48.490;9.688;2023-02-01T00:33:54;3.20;;;1.08;;
45043;SDS011;30784;48.490;9.688;2023-02-01T00:36:20;4.22;;;1.25;;
45043;SDS011;30784;48.490;9.688;2023-02-01T00:38:46;4.22;;;1.05;;
45043;SDS011;30784;48.490;9.688;2023-02-01T00:41:18;5.78;;;1.95;;
45043;SDS011;30784;48.490;9.688;2023-02-01T00:43:46;4.75;;;1.40;;
45043;SDS011;30784;48.490;9.688;2023-02-01T00:46:12;3.88;;;1.10;;
45043;SDS011;30784;48.490;9.688;2023-02-01T00:48:39;3.17;;;1.00;;
45043;SDS011;30784;48.490;9.688;2023-02-01T00:51:09;2.88;;;0.90;;
45043;SDS011;30784;48.490;9.688;2023-02-01T00:53:37;3.13;;;0.90;;
45043;SDS011;30784;48.490;9.688;2023-02-01T00:56:03;3.42;;;1.00;;
45043;SDS011;30784;48.490;9.688;2023-02-01T00:58:30;4.72;;;1.10;;
45043;SDS011;30784;48.490;9.688;2023-02-01T01:01:03;3.50;;;0.98;;
45043;SDS011;30784;48.490;9.688;2023-02-01T01:03:32;2.45;;;0.77;;
45043;SDS011;30784;48.490;9.688;2023-02-01T01:06:00;3.33;;;1.13;;
45043;SDS011;30784;48.490;9.688;2023-02-01T01:08:27;4.00;;;1.10;;
45043;SDS011;30784;48.490;9.688;2023-02-01T01:10:53;4.22;;;1.13;;
45043;SDS011;30784;48.490;9.688;2023-02-01T01:13:18;3.08;;;1.10;;
45043;SDS011;30784;48.490;9.688;2023-02-01T01:15:44;3.88;;;1.10;;
45043;SDS011;30784;48.490;9.688;2023-02-01T01:18:10;2.75;;;0.90;;
45043;SDS011;30784;48.490;9.688;2023-02-01T01:20:36;2.85;;;0.82;;
45043;SDS011;30784;48.490;9.688;2023-02-01T01:23:03;2.90;;;0.80;;
45043;SDS011;30784;48.490;9.688;2023-02-01T01:25:29;2.88;;;1.00;;
45043;SDS011;30784;48.490;9.688;2023-02-01T01:27:55;2.55;;;0.82;;
45043;SDS011;30784;48.490;9.688;2023-02-01T01:30:21;3.53;;;1.10;;
45043;SDS011;30784;48.490;9.688;2023-02-01T01:32:46;2.53;;;0.90;;
45043;SDS011;30784;48.490;9.688;2023-02-01T01:35:12;2.15;;;0.80;;
45043;SDS011;30784;48.490;9.688;2023-02-01T01:37:37;3.05;;;0.90;;
45043;SDS011;30784;48.490;9.688;2023-02-01T01:40:04;2.40;;;0.70;;
45043;SDS011;30784;48.490;9.688;2023-02-01T01:42:30;2.83;;;0.90;;
45043;SDS011;30784;48.490;9.688;2023-02-01T01:45:04;3.97;;;1.10;;
45043;SDS011;30784;48.490;9.688;2023-02-01T01:47:55;4.30;;;1.00;;
45043;SDS011;30784;48.490;9.688;2023-02-01T01:50:32;3.25;;;1.20;;
45043;SDS011;30784;48.490;9.688;2023-02-01T01:53:01;1.90;;;0.88;;
45043;SDS011;30784;48.490;9.688;2023-02-01T01:55:31;2.10;;;0.87;;
45043;SDS011;30784;48.490;9.688;2023-02-01T01:58:02;2.83;;;0.77;;
45043;SDS011;30784;48.490;9.688;2023-02-01T02:00:30;2.20;;;0.80;;
45043;SDS011;30784;48.490;9.688;2023-02-01T02:02:57;2.47;;;0.82;;
45043;SDS011;30784;48.490;9.688;2023-02-01T02:05:28;3.42;;;0.90;;
45043;SDS011;30784;48.490;9.688;2023-02-01T02:07:55;2.85;;;1.00;;
45043;SDS011;30784;48.490;9.688;2023-02-01T02:10:23;1.83;;;0.80;;
45043;SDS011;30784;48.490;9.688;2023-02-01T02:13:09;1.88;;;0.70;;
45043;SDS011;30784;48.490;9.688;2023-02-01T02:15:35;2.25;;;0.70;;
45043;SDS011;30784;48.490;9.688;2023-02-01T02:18:09;3.05;;;0.90;;
45043;SDS011;30784;48.490;9.688;2023-02-01T02:20:52;1.98;;;0.75;;
45043;SDS011;30784;48.490;9.688;2023-02-01T02:26:06;3.13;;;0.93;;
45043;SDS011;30784;48.490;9.688;2023-02-01T02:29:00;3.08;;;0.82;;
45043;SDS011;30784;48.490;9.688;2023-02-01T02:34:38;2.33;;;0.70;;
45043;SDS011;30784;48.490;9.688;2023-02-01T02:48:33;3.75;;;1.08;;
45043;SDS011;30784;48.490;9.688;2023-02-01T02:51:09;2.55;;;0.90;;
45043;SDS011;30784;48.490;9.688;2023-02-01T02:54:11;1.95;;;0.60;;
45043;SDS011;30784;48.490;9.688;2023-02-01T02:57:03;2.10;;;0.80;;
45043;SDS011;30784;48.490;9.688;2023-02-01T02:59:49;1.90;;;0.70;;
45043;SDS011;30784;48.490;9.688;2023-02-01T03:02:34;2.63;;;0.88;;
45043;SDS011;30784;48.490;9.688;2023-02-01T03:05:19;2.65;;;0.90;;
45043;SDS011;30784;48.490;9.688;2023-02-01T03:16:03;2.60;;;0.90;;
45043;SDS011;30784;48.490;9.688;2023-02-01T03:18:56;3.17;;;1.00;;
45043;SDS011;30784;48.490;9.688;2023-02-01T03:23:55;2.90;;;1.02;;
45043;SDS011;30784;48.490;9.688;2023-02-01T03:26:27;2.85;;;1.00;;
45043;SDS011;30784;48.490;9.688;2023-02-01T03:28:56;2.42;;;0.93;;
45043;SDS011;30784;48.490;9.688;2023-02-01T03:31:33;3.22;;;1.00;;
45043;SDS011;30784;48.490;9.688;2023-02-01T03:33:58;3.63;;;0.98;;
45043;SDS011;30784;48.490;9.688;2023-02-01T03:36:31;3.28;;;1.00;;
45043;SDS011;30784;48.490;9.688;2023-02-01T03:41:53;2.65;;;0.75;;
45043;SDS011;30784;48.490;9.688;2023-02-01T03:47:10;4.80;;;1.27;;
45043;SDS011;30784;48.490;9.688;2023-02-01T03:49:44;6.65;;;2.00;;
45043;SDS011;30784;48.490;9.688;2023-02-01T03:52:16;6.95;;;2.20;;
45043;SDS011;30784;48.490;9.688;2023-02-01T03:54:47;5.88;;;1.42;;
45043;SDS011;30784;48.490;9.688;2023-02-01T03:57:14;3.55;;;1.05;;
45043;SDS011;30784;48.490;9.688;2023-02-01T03:59:45;3.53;;;1.00;;
45043;SDS011;30784;48.490;9.688;2023-02-01T04:02:11;3.00;;;0.98;;
45043;SDS011;30784;48.490;9.688;2023-02-01T04:04:36;3.30;;;1.15;;
45043;SDS011;30784;48.490;9.688;2023-02-01T04:07:02;2.95;;;1.05;;
45043;SDS011;30784;48.490;9.688;2023-02-01T04:09:28;2.63;;;1.00;;
45043;SDS011;30784;48.490;9.688;2023-02-01T04:11:54;3.75;;;1.20;;
45043;SDS011;30784;48.490;9.688;2023-02-01T04:14:20;3.53;;;1.15;;
45043;SDS011;30784;48.490;9.688;2023-02-01T04:16:45;3.05;;;0.98;;
45043;SDS011;30784;48.490;9.688;2023-02-01T04:19:11;3.05;;;1.10;;
45043;SDS011;30784;48.490;9.688;2023-02-01T04:21:36;3.15;;;1.10;;
45043;SDS011;30784;48.490;9.688;2023-02-01T04:24:02;3.22;;;1.00;;
45043;SDS011;30784;48.490;9.688;2023-02-01T04:26:28;2.65;;;0.90;;
45043;SDS011;30784;48.490;9.688;2023-02-01T04:28:53;2.72;;;0.90;;
45043;SDS011;30784;48.490;9.688;2023-02-01T04:31:19;3.70;;;1.20;;
45043;SDS011;30784;48.490;9.688;2023-02-01T04:33:51;2.60;;;1.00;;
45043;SDS011;30784;48.490;9.688;2023-02-01T04:36:18;3.78;;;1.20;;
45043;SDS011;30784;48.490;9.688;2023-02-01T04:38:45;4.38;;;1.23;;
45043;SDS011;30784;48.490;9.688;2023-02-01T04:41:12;3.17;;;1.17;;
45043;SDS011;30784;48.490;9.688;2023-02-01T04:43:37;5.15;;;1.40;;
45043;SDS011;30784;48.490;9.688;2023-02-01T04:46:03;4.43;;;1.70;;
45043;SDS011;30784;48.490;9.688;2023-02-01T04:48:29;6.40;;;2.20;;
45043;SDS011;30784;48.490;9.688;2023-02-01T04:50:55;4.55;;;1.50;;
45043;SDS011;30784;48.490;9.688;2023-02-01T04:53:20;4.05;;;1.25;;
45043;SDS011;30784;48.490;9.688;2023-02-01T04:55:47;4.32;;;1.30;;
45043;SDS011;30784;48.490;9.688;2023-02-01T04:58:13;4.70;;;1.50;;
45043;SDS011;30784;48.490;9.688;2023-02-01T05:00:39;6.35;;;1.70;;
45043;SDS011;30784;48.490;9.688;2023-02-01T05:03:04;4.68;;;1.55;;
45043;SDS011;30784;48.490;9.688;2023-02-01T05:05:30;5.88;;;1.80;;
45043;SDS011;30784;48.490;9.688;2023-02-01T05:07:56;4.72;;;1.48;;
45043;SDS011;30784;48.490;9.688;2023-02-01T05:10:21;4.82;;;1.30;;
45043;SDS011;30784;48.490;9.688;2023-02-01T05:12:47;4.38;;;1.58;;
45043;SDS011;30784;48.490;9.688;2023-02-01T05:15:31;6.20;;;1.25;;
45043;SDS011;30784;48.490;9.688;2023-02-01T05:17:57;4.18;;;1.30;;
45043;SDS011;30784;48.490;9.688;2023-02-01T05:20:23;4.20;;;1.13;;
45043;SDS011;30784;48.490;9.688;2023-02-01T05:22:49;4.70;;;1.20;;
45043;SDS011;30784;48.490;9.688;2023-02-01T05:25:15;4.13;;;1.10;;
45043;SDS011;30784;48.490;9.688;2023-02-01T05:27:41;4.30;;;1.10;;
45043;SDS011;30784;48.490;9.688;2023-02-01T05:30:07;4.32;;;1.15;;
45043;SDS011;30784;48.490;9.688;2023-02-01T05:32:33;5.25;;;1.67;;
45043;SDS011;30784;48.490;9.688;2023-02-01T05:34:59;5.97;;;2.05;;
45043;SDS011;30784;48.490;9.688;2023-02-01T05:37:25;6.95;;;2.05;;
45043;SDS011;30784;48.490;9.688;2023-02-01T05:39:51;5.82;;;1.55;;
45043;SDS011;30784;48.490;9.688;2023-02-01T05:42:16;4.97;;;1.40;;
45043;SDS011;30784;48.490;9.688;2023-02-01T05:44:42;4.32;;;1.50;;
45043;SDS011;30784;48.490;9.688;2023-02-01T05:47:08;6.47;;;1.60;;
45043;SDS011;30784;48.490;9.688;2023-02-01T05:49:34;5.47;;;1.40;;
45043;SDS011;30784;48.490;9.688;2023-02-01T05:51:59;6.93;;;1.70;;
45043;SDS011;30784;48.490;9.688;2023-02-01T05:54:25;5.30;;;1.40;;
45043;SDS011;30784;48.490;9.688;2023-02-01T05:56:51;4.60;;;1.13;;
45043;SDS011;30784;48.490;9.688;2023-02-01T05:59:16;5.13;;;1.40;;
45043;SDS011;30784;48.490;9.688;2023-02-01T06:01:42;5.28;;;1.40;;
45043;SDS011;30784;48.490;9.688;2023-02-01T06:04:07;4.20;;;1.20;;
45043;SDS011;30784;48.490;9.688;2023-02-01T06:06:33;6.85;;;1.88;;
45043;SDS011;30784;48.490;9.688;2023-02-01T06:08:59;4.88;;;1.38;;
45043;SDS011;30784;48.490;9.688;2023-02-01T06:11:25;5.68;;;1.48;;
45043;SDS011;30784;48.490;9.688;2023-02-01T06:13:51;5.55;;;1.63;;
45043;SDS011;30784;48.490;9.688;2023-02-01T06:16:16;4.45;;;1.20;;
45043;SDS011;30784;48.490;9.688;2023-02-01T06:18:42;3.50;;;1.02;;
45043;SDS011;30784;48.490;9.688;2023-02-01T06:21:08;4.22;;;1.17;;
45043;SDS011;30784;48.490;9.688;2023-02-01T06:23:34;4.85;;;1.35;;
45043;SDS011;30784;48.490;9.688;2023-02-01T06:26:03;3.55;;;1.20;;
45043;SDS011;30784;48.490;9.688;2023-02-01T06:28:30;3.88;;;1.20;;
45043;SDS011;30784;48.490;9.688;2023-02-01T06:30:57;5.10;;;1.23;;
45043;SDS011;30784;48.490;9.688;2023-02-01T06:33:23;5.85;;;1.50;;
45043;SDS011;30784;48.490;9.688;2023-02-01T06:35:55;6.93;;;1.40;;
45043;SDS011;30784;48.490;9.688;2023-02-01T06:38:22;4.45;;;1.20;;
45043;SDS011;30784;48.490;9.688;2023-02-01T06:40:51;4.28;;;1.40;;
45043;SDS011;30784;48.490;9.688;2023-02-01T06:43:18;6.60;;;2.70;;
45043;SDS011;30784;48.490;9.688;2023-02-01T06:45:43;5.65;;;1.60;;
45043;SDS011;30784;48.490;9.688;2023-02-01T06:48:09;5.30;;;1.30;;
45043;SDS011;30784;48.490;9.688;2023-02-01T06:50:34;4.68;;;1.30;;
45043;SDS011;30784;48.490;9.688;2023-02-01T06:53:00;4.68;;;1.15;;
45043;SDS011;30784;48.490;9.688;2023-02-01T06:55:25;4.15;;;1.20;;
45043;SDS011;30784;48.490;9.688;2023-02-01T06:57:54;5.93;;;1.80;;
45043;SDS011;30784;48.490;9.688;2023-02-01T07:00:21;6.65;;;1.95;;
45043;SDS011;30784;48.490;9.688;2023-02-01T07:02:47;7.28;;;1.80;;
45043;SDS011;30784;48.490;9.688;2023-02-01T07:05:12;4.68;;;1.52;;
45043;SDS011;30784;48.490;9.688;2023-02-01T07:07:38;5.05;;;1.35;;
45043;SDS011;30784;48.490;9.688;2023-02-01T07:10:03;5.57;;;1.42;;
45043;SDS011;30784;48.490;9.688;2023-02-01T07:12:29;4.18;;;1.17;;
45043;SDS011;30784;48.490;9.688;2023-02-01T07:14:55;3.92;;;1.27;;
45043;SDS011;30784;48.490;9.688;2023-02-01T07:17:21;3.70;;;1.30;;
45043;SDS011;30784;48.490;9.688;2023-02-01T07:19:47;3.25;;;1.00;;
45043;SDS011;30784;48.490;9.688;2023-02-01T07:22:12;3.83;;;1.10;;
45043;SDS011;30784;48.490;9.688;2023-02-01T07:24:40;2.97;;;0.90;;
45043;SDS011;30784;48.490;9.688;2023-02-01T07:27:06;3.17;;;1.00;;
45043;SDS011;30784;48.490;9.688;2023-02-01T07:29:31;6.30;;;1.80;;
45043;SDS011;30784;48.490;9.688;2023-02-01T07:31:57;6.43;;;1.63;;
45043;SDS011;30784;48.490;9.688;2023-02-01T07:34:23;5.90;;;1.75;;
45043;SDS011;30784;48.490;9.688;2023-02-01T07:36:48;6.22;;;2.03;;
45043;SDS011;30784;48.490;9.688;2023-02-01T07:39:14;5.32;;;1.48;;
45043;SDS011;30784;48.490;9.688;2023-02-01T07:41:39;6.35;;;1.80;;
45043;SDS011;30784;48.490;9.688;2023-02-01T07:44:05;7.47;;;2.22;;
45043;SDS011;30784;48.490;9.688;2023-02-01T07:46:30;6.10;;;1.95;;
45043;SDS011;30784;48.490;9.688;2023-02-01T07:48:56;5.10;;;1.50;;
45043;SDS011;30784;48.490;9.688;2023-02-01T07:51:22;3.28;;;1.20;;
45043;SDS011;30784;48.490;9.688;2023-02-01T07:53:47;4.38;;;1.13;;
45043;SDS011;30784;48.490;9.688;2023-02-01T07:56:14;5.22;;;1.35;;
45043;SDS011;30784;48.490;9.688;2023-02-01T07:58:41;3.63;;;1.20;;
45043;SDS011;30784;48.490;9.688;2023-02-01T08:01:17;4.60;;;1.33;;
45043;SDS011;30784;48.490;9.688;2023-02-01T08:03:50;5.15;;;1.20;;
45043;SDS011;30784;48.490;9.688;2023-02-01T08:06:22;4.15;;;1.23;;
45043;SDS011;30784;48.490;9.688;2023-02-01T08:08:48;5.22;;;1.70;;
45043;SDS011;30784;48.490;9.688;2023-02-01T08:11:15;4.13;;;1.25;;
45043;SDS011;30784;48.490;9.688;2023-02-01T08:13:42;3.95;;;1.20;;
45043;SDS011;30784;48.490;9.688;2023-02-01T08:16:08;4.50;;;1.38;;
45043;SDS011;30784;48.490;9.688;2023-02-01T08:18:36;4.35;;;1.30;;
45043;SDS011;30784;48.490;9.688;2023-02-01T08:21:15;4.53;;;1.20;;
45043;SDS011;30784;48.490;9.688;2023-02-01T08:23:43;5.50;;;1.63;;
45043;SDS011;30784;48.490;9.688;2023-02-01T08:26:10;4.72;;;1.45;;
45043;SDS011;30784;48.490;9.688;2023-02-01T08:28:37;4.32;;;1.40;;
45043;SDS011;30784;48.490;9.688;2023-02-01T08:31:05;5.45;;;1.40;;
45043;SDS011;30784;48.490;9.688;2023-02-01T08:33:36;4.55;;;1.27;;
45043;SDS011;30784;48.490;9.688;2023-02-01T08:36:04;4.53;;;1.10;;
45043;SDS011;30784;48.490;9.688;2023-02-01T08:38:31;4.53;;;1.30;;
45043;SDS011;30784;48.490;9.688;2023-02-01T08:40:57;5.47;;;1.45;;
45043;SDS011;30784;48.490;9.688;2023-02-01T08:43:22;4.78;;;1.20;;
45043;SDS011;30784;48.490;9.688;2023-02-01T08:45:49;5.72;;;1.70;;
45043;SDS011;30784;48.490;9.688;2023-02-01T08:48:18;5.82;;;1.50;;
45043;SDS011;30784;48.490;9.688;2023-02-01T08:50:44;6.82;;;1.73;;
45043;SDS011;30784;48.490;9.688;2023-02-01T08:53:09;8.60;;;2.10;;
45043;SDS011;30784;48.490;9.688;2023-02-01T08:55:37;8.38;;;2.33;;
45043;SDS011;30784;48.490;9.688;2023-02-01T08:58:02;8.57;;;1.80;;
45043;SDS011;30784;48.490;9.688;2023-02-01T09:00:28;10.07;;;2.58;;
45043;SDS011;30784;48.490;9.688;2023-02-01T09:02:53;8.07;;;2.15;;
45043;SDS011;30784;48.490;9.688;2023-02-01T09:05:20;7.28;;;1.75;;
45043;SDS011;30784;48.490;9.688;2023-02-01T09:07:47;6.35;;;1.70;;
45043;SDS011;30784;48.490;9.688;2023-02-01T09:10:12;6.32;;;1.77;;
45043;SDS011;30784;48.490;9.688;2023-02-01T09:12:38;6.10;;;1.70;;
45043;SDS011;30784;48.490;9.688;2023-02-01T09:15:04;5.03;;;1.45;;
45043;SDS011;30784;48.490;9.688;2023-02-01T09:17:32;6.93;;;1.50;;
45043;SDS011;30784;48.490;9.688;2023-02-01T09:19:57;6.80;;;1.80;;
45043;SDS011;30784;48.490;9.688;2023-02-01T09:22:23;7.95;;;1.90;;
45043;SDS011;30784;48.490;9.688;2023-02-01T09:24:49;6.82;;;1.48;;
45043;SDS011;30784;48.490;9.688;2023-02-01T09:27:14;6.63;;;1.50;;
45043;SDS011;30784;48.490;9.688;2023-02-01T09:29:40;6.53;;;1.50;;
45043;SDS011;30784;48.490;9.688;2023-02-01T09:32:06;4.35;;;1.20;;
45043;SDS011;30784;48.490;9.688;2023-02-01T09:34:32;4.90;;;1.30;;
45043;SDS011;30784;48.490;9.688;2023-02-01T09:36:58;7.53;;;1.65;;
45043;SDS011;30784;48.490;9.688;2023-02-01T09:39:24;8.20;;;2.15;;
45043;SDS011;30784;48.490;9.688;2023-02-01T09:41:52;6.57;;;1.45;;
45043;SDS011;30784;48.490;9.688;2023-02-01T09:47:24;9.05;;;1.70;;
45043;SDS011;30784;48.490;9.688;2023-02-01T09:49:59;6.72;;;1.70;;
45043;SDS011;30784;48.490;9.688;2023-02-01T09:52:36;7.95;;;2.03;;
45043;SDS011;30784;48.490;9.688;2023-02-01T09:55:09;9.02;;;2.00;;
45043;SDS011;30784;48.490;9.688;2023-02-01T09:57:55;8.60;;;1.77;;
45043;SDS011;30784;48.490;9.688;2023-02-01T10:00:27;10.13;;;1.77;;
45043;SDS011;30784;48.490;9.688;2023-02-01T10:02:56;3.95;;;1.10;;
45043;SDS011;30784;48.490;9.688;2023-02-01T10:10:49;5.07;;;1.48;;
45043;SDS011;30784;48.490;9.688;2023-02-01T10:13:33;8.77;;;1.52;;
45043;SDS011;30784;48.490;9.688;2023-02-01T10:16:12;9.13;;;1.80;;
45043;SDS011;30784;48.490;9.688;2023-02-01T10:27:25;7.03;;;1.80;;
45043;SDS011;30784;48.490;9.688;2023-02-01T10:29:59;10.13;;;2.25;;
45043;SDS011;30784;48.490;9.688;2023-02-01T10:32:29;8.80;;;2.00;;
45043;SDS011;30784;48.490;9.688;2023-02-01T10:35:04;10.82;;;1.95;;
45043;SDS011;30784;48.490;9.688;2023-02-01T10:37:44;8.52;;;1.77;;
45043;SDS011;30784;48.490;9.688;2023-02-01T10:40:19;9.25;;;1.77;;
45043;SDS011;30784;48.490;9.688;2023-02-01T10:42:47;9.45;;;1.90;;
45043;SDS011;30784;48.490;9.688;2023-02-01T10:45:22;8.95;;;2.03;;
45043;SDS011;30784;48.490;9.688;2023-02-01T10:47:52;8.07;;;1.63;;
45043;SDS011;30784;48.490;9.688;2023-02-01T10:58:15;12.10;;;2.25;;
45043;SDS011;30784;48.490;9.688;2023-02-01T11:00:54;9.02;;;1.80;;
45043;SDS011;30784;48.490;9.688;2023-02-01T11:03:51;9.02;;;2.40;;
45043;SDS011;30784;48.490;9.688;2023-02-01T11:08:49;9.07;;;2.20;;
45043;SDS011;30784;48.490;9.688;2023-02-01T11:11:19;7.50;;;1.65;;
45043;SDS011;30784;48.490;9.688;2023-02-01T11:13:51;12.50;;;2.30;;
45043;SDS011;30784;48.490;9.688;2023-02-01T11:16:18;10.80;;;1.98;;
45043;SDS011;30784;48.490;9.688;2023-02-01T11:18:44;10.75;;;1.95;;
45043;SDS011;30784;48.490;9.688;2023-02-01T11:21:10;9.13;;;2.00;;
45043;SDS011;30784;48.490;9.688;2023-02-01T11:23:40;12.60;;;1.55;;
45043;SDS011;30784;48.490;9.688;2023-02-01T11:26:13;9.73;;;1.90;;
45043;SDS011;30784;48.490;9.688;2023-02-01T11:28:50;10.05;;;2.20;;
45043;SDS011;30784;48.490;9.688;2023-02-01T11:31:24;9.40;;;1.67;;
45043;SDS011;30784;48.490;9.688;2023-02-01T11:33:57;8.75;;;1.85;;
45043;SDS011;30784;48.490;9.688;2023-02-01T11:36:26;8.70;;;1.90;;
45043;SDS011;30784;48.490;9.688;2023-02-01T11:39:17;11.75;;;1.95;;
45043;SDS011;30784;48.490;9.688;2023-02-01T11:41:58;12.93;;;2.47;;
45043;SDS011;30784;48.490;9.688;2023-02-01T11:49:56;9.13;;;1.75;;
45043;SDS011;30784;48.490;9.688;2023-02-01T11:54:56;10.73;;;1.88;;
45043;SDS011;30784;48.490;9.688;2023-02-01T12:17:27;8.75;;;1.70;;
45043;SDS011;30784;48.490;9.688;2023-02-01T12:36:26;7.57;;;1.40;;
45043;SDS011;30784;48.490;9.688;2023-02-01T12:39:08;9.52;;;1.60;;
45043;SDS011;30784;48.490;9.688;2023-02-01T12:44:50;7.80;;;1.60;;
45043;SDS011;30784;48.490;9.688;2023-02-01T12:52:34;10.60;;;1.55;;
45043;SDS011;30784;48.490;9.688;2023-02-01T12:55:22;8.73;;;1.50;;
45043;SDS011;30784;48.490;9.688;2023-02-01T12:58:12;9.52;;;1.65;;
45043;SDS011;30784;48.490;9.688;2023-02-01T13:01:03;6.43;;;1.60;;
45043;SDS011;30784;48.490;9.688;2023-02-01T13:06:13;7.72;;;1.38;;
45043;SDS011;30784;48.490;9.688;2023-02-01T13:08:45;9.43;;;1.40;;
45043;SDS011;30784;48.490;9.688;2023-02-01T13:11:24;7.15;;;1.23;;
45043;SDS011;30784;48.490;9.688;2023-02-01T13:22:12;9.43;;;1.73;;
45043;SDS011;30784;48.490;9.688;2023-02-01T13:24:52;8.48;;;1.67;;
45043;SDS011;30784;48.490;9.688;2023-02-01T13:27:30;8.15;;;1.40;;
45043;SDS011;30784;48.490;9.688;2023-02-01T13:29:58;9.68;;;1.70;;
45043;SDS011;30784;48.490;9.688;2023-02-01T13:38:24;9.32;;;1.83;;
45043;SDS011;30784;48.490;9.688;2023-02-01T13:41:08;8.63;;;1.75;;
45043;SDS011;30784;48.490;9.688;2023-02-01T13:46:19;8.65;;;1.70;;
45043;SDS011;30784;48.490;9.688;2023-02-01T13:48:46;9.73;;;1.67;;
45043;SDS011;30784;48.490;9.688;2023-02-01T13:51:19;6.40;;;1.55;;
45043;SDS011;30784;48.490;9.688;2023-02-01T13:56:50;9.45;;;1.98;;
45043;SDS011;30784;48.490;9.688;2023-02-01T14:05:01;12.00;;;1.75;;
45043;SDS011;30784;48.490;9.688;2023-02-01T14:07:26;7.25;;;1.42;;
45043;SDS011;30784;48.490;9.688;2023-02-01T14:09:52;7.97;;;1.60;;
45043;SDS011;30784;48.490;9.688;2023-02-01T14:15:16;7.53;;;1.92;;
45043;SDS011;30784;48.490;9.688;2023-02-01T14:17:47;7.80;;;1.52;;
45043;SDS011;30784;48.490;9.688;2023-02-01T14:20:36;7.30;;;1.50;;
45043;SDS011;30784;48.490;9.688;2023-02-01T14:23:10;7.82;;;1.42;;
45043;SDS011;30784;48.490;9.688;2023-02-01T14:25:41;7.07;;;1.52;;
45043;SDS011;30784;48.490;9.688;2023-02-01T14:28:12;7.10;;;1.80;;
45043;SDS011;30784;48.490;9.688;2023-02-01T14:30:49;7.53;;;1.58;;
45043;SDS011;30784;48.490;9.688;2023-02-01T14:33:20;6.45;;;1.23;;
45043;SDS011;30784;48.490;9.688;2023-02-01T14:38:51;10.00;;;2.08;;
45043;SDS011;30784;48.490;9.688;2023-02-01T14:41:26;8.55;;;1.80;;
45043;SDS011;30784;48.490;9.688;2023-02-01T14:44:22;9.93;;;2.08;;
45043;SDS011;30784;48.490;9.688;2023-02-01T14:49:37;8.75;;;1.70;;
45043;SDS011;30784;48.490;9.688;2023-02-01T14:52:15;10.00;;;1.90;;
45043;SDS011;30784;48.490;9.688;2023-02-01T14:54:44;8.40;;;2.22;;
45043;SDS011;30784;48.490;9.688;2023-02-01T14:57:15;9.48;;;2.15;;
45043;SDS011;30784;48.490;9.688;2023-02-01T14:59:44;9.75;;;2.00;;
45043;SDS011;30784;48.490;9.688;2023-02-01T15:02:18;11.60;;;2.10;;
45043;SDS011;30784;48.490;9.688;2023-02-01T15:04:50;8.43;;;2.17;;
45043;SDS011;30784;48.490;9.688;2023-02-01T15:07:19;9.00;;;2.00;;
45043;SDS011;30784;48.490;9.688;2023-02-01T15:09:46;8.63;;;1.70;;
45043;SDS011;30784;48.490;9.688;2023-02-01T15:12:17;9.02;;;1.85;;
45043;SDS011;30784;48.490;9.688;2023-02-01T15:17:42;9.02;;;1.90;;
45043;SDS011;30784;48.490;9.688;2023-02-01T15:20:20;8.95;;;2.03;;
45043;SDS011;30784;48.490;9.688;2023-02-01T15:25:23;9.27;;;1.70;;
45043;SDS011;30784;48.490;9.688;2023-02-01T15:27:51;10.10;;;1.93;;
45043;SDS011;30784;48.490;9.688;2023-02-01T15:30:35;12.98;;;2.70;;
45043;SDS011;30784;48.490;9.688;2023-02-01T15:33:19;9.55;;;2.33;;
45043;SDS011;30784;48.490;9.688;2023-02-01T15:35:46;9.50;;;2.00;;
45043;SDS011;30784;48.490;9.688;2023-02-01T15:46:36;10.30;;;2.17;;
45043;SDS011;30784;48.490;9.688;2023-02-01T15:49:04;10.15;;;2.08;;
45043;SDS011;30784;48.490;9.688;2023-02-01T15:51:43;9.00;;;2.13;;
45043;SDS011;30784;48.490;9.688;2023-02-01T15:54:15;10.95;;;2.38;;
45043;SDS011;30784;48.490;9.688;2023-02-01T15:56:46;10.95;;;1.80;;
45043;SDS011;30784;48.490;9.688;2023-02-01T15:59:20;9.25;;;1.98;;
45043;SDS011;30784;48.490;9.688;2023-02-01T16:01:53;8.23;;;1.88;;
45043;SDS011;30784;48.490;9.688;2023-02-01T16:06:45;9.52;;;1.85;;
45043;SDS011;30784;48.490;9.688;2023-02-01T16:09:15;9.93;;;2.40;;
45043;SDS011;30784;48.490;9.688;2023-02-01T16:11:52;9.55;;;1.98;;
45043;SDS011;30784;48.490;9.688;2023-02-01T16:14:25;8.07;;;1.98;;
45043;SDS011;30784;48.490;9.688;2023-02-01T16:16:52;9.75;;;2.10;;
45043;SDS011;30784;48.490;9.688;2023-02-01T16:19:19;10.30;;;2.13;;
45043;SDS011;30784;48.490;9.688;2023-02-01T16:21:44;11.45;;;2.60;;
45043;SDS011;30784;48.490;9.688;2023-02-01T16:24:10;11.50;;;2.03;;
45043;SDS011;30784;48.490;9.688;2023-02-01T16:26:36;9.40;;;2.28;;
45043;SDS011;30784;48.490;9.688;2023-02-01T16:29:03;9.05;;;2.20;;
45043;SDS011;30784;48.490;9.688;2023-02-01T16:31:31;12.07;;;2.13;;
45043;SDS011;30784;48.490;9.688;2023-02-01T16:34:00;10.52;;;2.55;;
45043;SDS011;30784;48.490;9.688;2023-02-01T16:36:26;8.55;;;1.75;;
45043;SDS011;30784;48.490;9.688;2023-02-01T16:38:53;9.07;;;1.67;;
45043;SDS011;30784;48.490;9.688;2023-02-01T16:41:20;10.07;;;1.77;;
45043;SDS011;30784;48.490;9.688;2023-02-01T16:43:50;11.50;;;2.40;;
45043;SDS011;30784;48.490;9.688;2023-02-01T16:46:19;11.52;;;2.10;;
45043;SDS011;30784;48.490;9.688;2023-02-01T16:48:53;8.40;;;2.05;;
45043;SDS011;30784;48.490;9.688;2023-02-01T16:51:20;14.73;;;2.17;;
45043;SDS011;30784;48.490;9.688;2023-02-01T16:53:47;11.32;;;1.90;;
45043;SDS011;30784;48.490;9.688;2023-02-01T16:56:14;12.35;;;2.33;;
45043;SDS011;30784;48.490;9.688;2023-02-01T16:58:44;11.10;;;2.30;;
45043;SDS011;30784;48.490;9.688;2023-02-01T17:01:11;10.27;;;2.17;;
45043;SDS011;30784;48.490;9.688;2023-02-01T17:03:38;10.10;;;2.20;;
45043;SDS011;30784;48.490;9.688;2023-02-01T17:06:04;9.73;;;2.38;;
45043;SDS011;30784;48.490;9.688;2023-02-01T17:08:34;9.88;;;2.10;;
45043;SDS011;30784;48.490;9.688;2023-02-01T17:11:02;7.78;;;2.00;;
45043;SDS011;30784;48.490;9.688;2023-02-01T17:13:28;9.82;;;2.05;;
45043;SDS011;30784;48.490;9.688;2023-02-01T17:15:56;10.75;;;2.05;;
45043;SDS011;30784;48.490;9.688;2023-02-01T17:18:28;9.25;;;2.15;;
45043;SDS011;30784;48.490;9.688;2023-02-01T17:20:57;10.60;;;1.90;;
45043;SDS011;30784;48.490;9.688;2023-02-01T17:23:23;9.60;;;2.10;;
45043;SDS011;30784;48.490;9.688;2023-02-01T17:25:50;9.25;;;2.13;;
45043;SDS011;30784;48.490;9.688;2023-02-01T17:28:16;10.18;;;2.10;;
45043;SDS011;30784;48.490;9.688;2023-02-01T17:30:42;9.93;;;2.28;;
45043;SDS011;30784;48.490;9.688;2023-02-01T17:33:40;9.88;;;2.00;;
45043;SDS011;30784;48.490;9.688;2023-02-01T17:36:00;9.48;;;2.20;;
45043;SDS011;30784;48.490;9.688;2023-02-01T17:38:27;11.27;;;2.30;;
45043;SDS011;30784;48.490;9.688;2023-02-01T17:40:53;10.70;;;2.03;;
45043;SDS011;30784;48.490;9.688;2023-02-01T17:43:20;10.90;;;2.20;;
45043;SDS011;30784;48.490;9.688;2023-02-01T17:48:36;9.93;;;2.33;;
45043;SDS011;30784;48.490;9.688;2023-02-01T17:51:02;10.45;;;1.98;;
45043;SDS011;30784;48.490;9.688;2023-02-01T17:53:28;11.63;;;2.08;;